Time,TemperatureF,DewpointF,PressureIn,WindDirection,WindDirectionDegrees,WindSpeedMPH,WindSpeedGustMPH,Humidity,HourlyPrecipIn,Conditions,Clouds,dailyrainin,SoftwareType,DateUTC
2013-04-12 00:02:00,27.7,22.0,29.85,ESE,112,2.5,3.5,79,0.00,OVC,,0.00,WeatherDisplay:10.37,2013-04-12 06:02:00,
2013-04-12 00:07:00,27.7,22.0,29.85,East,90,3.7,3.7,79,0.00,OVC,,0.00,WeatherDisplay:10.37,2013-04-12 06:07:00,
2013-04-12 00:12:00,27.7,22.0,29.85,East,90,3.3,4.6,79,0.00,OVC,,0.00,WeatherDisplay:10.37,2013-04-12 06:12:00,
2013-04-12 00:17:00,27.7,22.0,29.85,SE,135,2.4,2.7,79,0.00,OVC,,0.00,WeatherDisplay:10.37,2013-04-12 06:17:00,
2013-04-12 00:22:00,27.7,22.0,29.85,East,90,4.9,5.8,79,0.00,OVC,,0.00,WeatherDisplay:10.37,2013-04-12 06:22:00,
2013-04-12 00:27:00,27.7,22.0,29.85,SSE,158,2.8,3.5,79,0.00,OVC,,0.00,WeatherDisplay:10.37,2013-04-12 06:27:00,
2013-04-12 00:32:00,27.7,22.0,29.86,ENE,68,2.9,3.5,79,0.00,OVC,,0.00,WeatherDisplay:10.37,2013-04-12 06:32:00,
2013-04-12 00:37:00,28.0,22.3,29.86,SE,135,3.5,3.5,79,0.00,OVC,,0.00,WeatherDisplay:10.37,2013-04-12 06:37:00,
2013-04-12 00:42:00,27.9,22.2,29.86,ENE,68,2.7,3.5,79,0.00,OVC,,0.00,WeatherDisplay:10.37,2013-04-12 06:42:00,
2013-04-12 00:47:00,27.9,22.2,29.86,ESE,112,2.2,2.3,79,0.00,OVC,,0.00,WeatherDisplay:10.37,2013-04-12 06:47:00,
2013-04-12 00:52:00,27.9,22.2,29.85,ESE,112,2.2,2.3,79,0.00,OVC,,0.00,WeatherDisplay:10.37,2013-04-12 06:52:00,
2013-04-12 00:57:00,27.9,22.2,29.85,ESE,112,2.6,3.7,79,0.00,OVC,,0.00,WeatherDisplay:10.37,2013-04-12 06:57:00,
2013-04-12 01:02:00,28.0,22.3,29.85,ESE,112,3.3,3.5,79,0.00,OVC,,0.00,WeatherDisplay:10.37,2013-04-12 07:02:00,
2013-04-12 01:07:00,28.0,22.6,29.86,SE,135,2.8,3.5,80,0.00,OVC,,0.00,WeatherDisplay:10.37,2013-04-12 07:07:00,
2013-04-12 01:12:00,28.0,22.3,29.86,SSE,158,2.9,3.5,79,0.00,OVC,,0.00,WeatherDisplay:10.37,2013-04-12 07:12:00,
2013-04-12 01:17:00,28.0,22.3,29.85,SSE,158,3.5,4.6,79,0.00,OVC,,0.00,WeatherDisplay:10.37,2013-04-12 07:17:00,
2013-04-12 01:22:00,28.0,22.3,29.85,ESE,112,2.4,3.2,79,0.00,OVC,,0.00,WeatherDisplay:10.37,2013-04-12 07:22:00,
2013-04-12 01:28:00,28.0,22.3,29.85,SSE,158,2.4,2.4,79,0.00,OVC,,0.00,WeatherDisplay:10.37,2013-04-12 07:28:00,
2013-04-12 01:33:00,28.2,22.5,29.85,SW,225,1.6,2.3,79,0.00,OVC,,0.00,WeatherDisplay:10.37,2013-04-12 07:33:00,
2013-04-12 01:38:00,28.2,22.2,29.85,SSE,158,0.2,1.1,78,0.00,OVC,,0.00,WeatherDisplay:10.37,2013-04-12 07:38:00,
2013-04-12 01:43:00,28.2,22.2,29.86,SSE,158,0.0,1.1,78,0.00,OVC,,0.00,WeatherDisplay:10.37,2013-04-12 07:43:00,
2013-04-12 01:48:00,28.4,22.4,29.86,South,180,2.3,2.3,78,0.00,OVC,,0.00,WeatherDisplay:10.37,2013-04-12 07:48:00,
2013-04-12 01:53:00,28.6,22.6,29.85,SE,135,0.0,0.0,78,0.00,OVC,,0.00,WeatherDisplay:10.37,2013-04-12 07:53:00,
2013-04-12 01:58:00,28.6,22.6,29.85,WSW,248,1.4,1.7,78,0.00,OVC,,0.00,WeatherDisplay:10.37,2013-04-12 07:58:00,
2013-04-12 02:03:00,28.4,22.4,29.85,WNW,292,2.0,2.3,78,0.00,OVC,,0.00,WeatherDisplay:10.37,2013-04-12 08:03:00,
2013-04-12 02:08:00,28.4,22.4,29.85,West,270,0.8,1.7,78,0.00,OVC,,0.00,WeatherDisplay:10.37,2013-04-12 08:08:00,
2013-04-12 02:13:00,28.4,22.4,29.85,West,270,1.7,2.3,78,0.00,OVC,,0.00,WeatherDisplay:10.37,2013-04-12 08:13:00,
2013-04-12 02:18:00,28.4,22.4,29.85,NNW,338,0.6,1.7,78,0.00,OVC,,0.00,WeatherDisplay:10.37,2013-04-12 08:18:00,
2013-04-12 02:23:00,28.4,22.4,29.85,WNW,292,1.9,2.7,78,0.00,OVC,,0.00,WeatherDisplay:10.37,2013-04-12 08:23:00,
2013-04-12 02:28:00,28.4,22.4,29.85,NNE,22,0.0,0.0,78,0.00,OVC,,0.00,WeatherDisplay:10.37,2013-04-12 08:28:00,
2013-04-12 02:33:00,28.4,22.4,29.85,WNW,292,2.0,2.3,78,0.00,OVC,,0.00,WeatherDisplay:10.37,2013-04-12 08:33:00,
2013-04-12 02:38:00,28.4,22.4,29.85,NNW,338,0.0,0.0,78,0.00,OVC,,0.00,WeatherDisplay:10.37,2013-04-12 08:38:00,
2013-04-12 02:43:00,28.6,22.6,29.85,NNW,338,2.2,2.3,78,0.00,OVC,,0.00,WeatherDisplay:10.37,2013-04-12 08:43:00,
2013-04-12 02:48:00,28.6,22.3,29.85,NNE,22,1.9,2.3,77,0.00,OVC,,0.00,WeatherDisplay:10.37,2013-04-12 08:48:00,
2013-04-12 02:53:00,28.6,22.3,29.85,WNW,292,1.1,2.3,77,0.00,OVC,,0.00,WeatherDisplay:10.37,2013-04-12 08:53:00,
2013-04-12 02:58:00,28.8,22.5,29.85,NW,315,1.8,2.3,77,0.00,OVC,,0.00,WeatherDisplay:10.37,2013-04-12 08:58:00,
2013-04-12 03:03:00,28.8,22.5,29.85,North,360,2.4,2.7,77,0.00,OVC,,0.00,WeatherDisplay:10.37,2013-04-12 09:03:00,
2013-04-12 03:08:00,28.8,22.5,29.85,North,360,1.3,1.7,77,0.00,OVC,,0.00,WeatherDisplay:10.37,2013-04-12 09:08:00,
2013-04-12 03:13:00,28.8,22.5,29.85,WNW,292,2.5,2.7,77,0.00,OVC,,0.00,WeatherDisplay:10.37,2013-04-12 09:13:00,
2013-04-12 03:18:00,28.6,22.3,29.85,NW,315,2.4,3.5,77,0.00,OVC,,0.00,WeatherDisplay:10.37,2013-04-12 09:18:00,
2013-04-12 03:23:00,28.6,22.3,29.85,NW,315,1.6,2.3,77,0.00,OVC,,0.00,WeatherDisplay:10.37,2013-04-12 09:23:00,
2013-04-12 03:28:00,28.6,22.3,29.85,NNW,338,1.8,2.7,77,0.00,OVC,,0.00,WeatherDisplay:10.37,2013-04-12 09:28:00,
2013-04-12 03:33:00,28.6,22.6,29.85,WSW,248,0.0,1.1,78,0.00,OVC,,0.00,WeatherDisplay:10.37,2013-04-12 09:33:00,
2013-04-12 03:38:00,28.6,22.3,29.85,West,270,2.3,2.7,77,0.00,OVC,,0.00,WeatherDisplay:10.37,2013-04-12 09:38:00,
2013-04-12 03:43:00,28.6,22.6,29.84,WNW,292,2.0,2.3,78,0.00,OVC,,0.00,WeatherDisplay:10.37,2013-04-12 09:43:00,
2013-04-12 03:48:00,28.6,22.9,29.84,WSW,248,1.8,2.3,79,0.00,OVC,,0.00,WeatherDisplay:10.37,2013-04-12 09:48:00,
2013-04-12 03:53:00,28.6,22.9,29.84,West,270,3.3,3.7,79,0.00,OVC,,0.00,WeatherDisplay:10.37,2013-04-12 09:53:00,
2013-04-12 03:58:00,28.6,23.2,29.84,WNW,292,3.2,3.5,80,0.00,OVC,,0.00,WeatherDisplay:10.37,2013-04-12 09:58:00,
2013-04-12 04:03:00,28.6,23.2,29.84,West,270,2.8,2.8,80,0.00,OVC,,0.00,WeatherDisplay:10.37,2013-04-12 10:03:00,
2013-04-12 04:08:00,28.6,23.2,29.84,WNW,292,2.6,3.5,80,0.00,OVC,,0.00,WeatherDisplay:10.37,2013-04-12 10:08:00,
2013-04-12 04:13:00,28.4,23.0,29.84,WSW,248,3.6,4.6,80,0.00,OVC,,0.00,WeatherDisplay:10.37,2013-04-12 10:13:00,
2013-04-12 04:18:00,28.4,23.0,29.84,West,270,2.5,2.5,80,0.00,OVC,,0.00,WeatherDisplay:10.37,2013-04-12 10:18:00,
2013-04-12 04:23:00,28.4,23.3,29.84,West,270,2.2,2.3,81,0.00,OVC,,0.00,WeatherDisplay:10.37,2013-04-12 10:23:00,
2013-04-12 04:28:00,28.4,23.3,29.84,West,270,3.0,3.7,81,0.00,OVC,,0.00,WeatherDisplay:10.37,2013-04-12 10:28:00,
2013-04-12 04:33:00,28.4,23.6,29.84,West,270,2.5,3.7,82,0.00,OVC,,0.00,WeatherDisplay:10.37,2013-04-12 10:33:00,
2013-04-12 04:38:00,28.6,23.8,29.84,West,270,3.0,3.5,82,0.00,OVC,,0.00,WeatherDisplay:10.37,2013-04-12 10:38:00,
2013-04-12 04:43:00,28.6,23.8,29.84,WNW,292,2.7,3.5,82,0.00,OVC,,0.00,WeatherDisplay:10.37,2013-04-12 10:43:00,
2013-04-12 04:48:00,28.6,23.8,29.84,NNW,338,2.0,2.3,82,0.00,OVC,,0.00,WeatherDisplay:10.37,2013-04-12 10:48:00,
2013-04-12 04:53:00,28.6,23.8,29.84,NNW,338,2.1,2.3,82,0.00,OVC,,0.00,WeatherDisplay:10.37,2013-04-12 10:53:00,
2013-04-12 04:59:00,28.6,23.5,29.84,NE,45,2.9,3.7,81,0.00,OVC,,0.00,WeatherDisplay:10.37,2013-04-12 10:59:00,
2013-04-12 05:03:00,28.6,23.5,29.84,NNW,338,1.7,1.7,81,0.00,OVC,,0.00,WeatherDisplay:10.37,2013-04-12 11:03:00,
2013-04-12 05:09:00,28.6,23.5,29.84,North,360,1.2,1.2,81,0.00,OVC,,0.00,WeatherDisplay:10.37,2013-04-12 11:09:00,
2013-04-12 05:14:00,28.6,23.5,29.84,NNE,22,1.3,2.3,81,0.00,OVC,,0.00,WeatherDisplay:10.37,2013-04-12 11:14:00,
2013-04-12 05:19:00,28.6,22.9,29.84,NNW,338,3.5,3.7,79,0.00,OVC,,0.00,WeatherDisplay:10.37,2013-04-12 11:19:00,
2013-04-12 05:24:00,28.6,22.9,29.84,NW,315,2.6,3.5,79,0.00,OVC,,0.00,WeatherDisplay:10.37,2013-04-12 11:24:00,
2013-04-12 05:29:00,28.6,23.2,29.84,NNE,22,2.7,3.5,80,0.00,OVC,,0.00,WeatherDisplay:10.37,2013-04-12 11:29:00,
2013-04-12 05:34:00,28.6,23.2,29.84,NE,45,3.3,4.6,80,0.00,OVC,,0.00,WeatherDisplay:10.37,2013-04-12 11:34:00,
2013-04-12 05:39:00,28.8,23.4,29.84,NE,45,3.2,3.7,80,0.00,OVC,,0.00,WeatherDisplay:10.37,2013-04-12 11:39:00,
2013-04-12 05:44:00,28.8,23.1,29.84,NNE,22,2.6,2.6,79,0.00,OVC,,0.00,WeatherDisplay:10.37,2013-04-12 11:44:00,
2013-04-12 05:49:00,28.8,23.4,29.84,ENE,68,2.5,3.5,80,0.00,OVC,,0.00,WeatherDisplay:10.37,2013-04-12 11:49:00,
2013-04-12 05:54:00,28.8,23.4,29.84,NE,45,3.5,4.6,80,0.00,OVC,,0.00,WeatherDisplay:10.37,2013-04-12 11:54:00,
2013-04-12 05:59:00,28.6,23.5,29.84,NNE,22,5.2,5.8,81,0.00,OVC,,0.00,WeatherDisplay:10.37,2013-04-12 11:59:00,
2013-04-12 06:04:00,28.2,23.4,29.85,ESE,112,2.2,3.5,82,0.00,OVC,,0.00,WeatherDisplay:10.37,2013-04-12 12:04:00,
2013-04-12 06:09:00,28.2,23.4,29.85,ENE,68,2.6,2.6,82,0.00,OVC,,0.00,WeatherDisplay:10.37,2013-04-12 12:09:00,
2013-04-12 06:14:00,28.2,23.4,29.85,NE,45,2.4,3.5,82,0.00,OVC,,0.00,WeatherDisplay:10.37,2013-04-12 12:14:00,
2013-04-12 06:19:00,28.2,23.4,29.85,NNE,22,3.8,4.6,82,0.00,OVC,,0.00,WeatherDisplay:10.37,2013-04-12 12:19:00,
2013-04-12 06:24:00,28.2,23.7,29.85,NE,45,4.1,5.8,83,0.00,OVC,,0.00,WeatherDisplay:10.37,2013-04-12 12:24:00,
2013-04-12 06:29:00,28.2,23.7,29.85,ENE,68,4.1,4.6,83,0.00,OVC,,0.00,WeatherDisplay:10.37,2013-04-12 12:29:00,
2013-04-12 06:34:00,28.2,24.0,29.85,NNE,22,3.5,4.2,84,0.00,OVC,,0.00,WeatherDisplay:10.37,2013-04-12 12:34:00,
2013-04-12 06:39:00,28.2,24.0,29.85,NE,45,2.8,3.7,84,0.00,OVC,,0.00,WeatherDisplay:10.37,2013-04-12 12:39:00,
2013-04-12 06:44:00,28.2,24.6,29.85,NNE,22,2.4,2.7,86,0.00,OVC,,0.00,WeatherDisplay:10.37,2013-04-12 12:44:00,
2013-04-12 06:49:00,28.2,24.0,29.85,East,90,4.2,6.3,84,0.00,OVC,,0.00,WeatherDisplay:10.37,2013-04-12 12:49:00,
2013-04-12 06:54:00,27.9,23.7,29.85,ENE,68,3.3,4.2,84,0.00,OVC,,0.00,WeatherDisplay:10.37,2013-04-12 12:54:00,
2013-04-12 06:59:00,27.9,24.0,29.85,ENE,68,5.1,6.3,85,0.00,OVC,,0.00,WeatherDisplay:10.37,2013-04-12 12:59:00,
2013-04-12 07:04:00,27.7,23.8,29.85,NNE,22,4.7,5.8,85,0.00,OVC,,0.00,WeatherDisplay:10.37,2013-04-12 13:04:00,
2013-04-12 07:09:00,27.7,23.8,29.85,NNE,22,4.7,5.8,85,0.00,OVC,,0.00,WeatherDisplay:10.37,2013-04-12 13:09:00,
2013-04-12 07:14:00,27.9,24.0,29.85,ESE,112,4.5,5.3,85,0.00,OVC,,0.00,WeatherDisplay:10.37,2013-04-12 13:14:00,
2013-04-12 07:19:00,27.9,24.0,29.85,ENE,68,3.6,5.8,85,0.00,OVC,,0.00,WeatherDisplay:10.37,2013-04-12 13:19:00,
2013-04-12 07:24:00,27.9,24.0,29.85,ENE,68,3.8,5.8,85,0.00,OVC,,0.00,WeatherDisplay:10.37,2013-04-12 13:24:00,
2013-04-12 07:29:00,28.0,24.6,29.86,East,90,4.5,5.8,87,0.00,OVC,,0.00,WeatherDisplay:10.37,2013-04-12 13:29:00,
2013-04-12 07:34:00,27.9,24.5,29.86,ENE,68,5.1,5.8,87,0.00,OVC,,0.00,WeatherDisplay:10.37,2013-04-12 13:34:00,
2013-04-12 07:39:00,27.9,24.5,29.86,ENE,68,2.9,5.8,87,0.00,OVC,,0.00,WeatherDisplay:10.37,2013-04-12 13:39:00,
2013-04-12 07:44:00,27.9,24.5,29.86,ENE,68,4.3,5.8,87,0.00,OVC,,0.00,WeatherDisplay:10.37,2013-04-12 13:44:00,
2013-04-12 07:49:00,27.9,24.5,29.86,East,90,4.6,5.8,87,0.00,OVC,,0.00,WeatherDisplay:10.37,2013-04-12 13:49:00,
2013-04-12 07:54:00,28.0,24.6,29.86,NNE,22,2.7,2.7,87,0.00,OVC,,0.00,WeatherDisplay:10.37,2013-04-12 13:54:00,
2013-04-12 07:59:00,27.5,24.1,29.86,ESE,112,4.8,8.1,87,0.00,OVC,,0.00,WeatherDisplay:10.37,2013-04-12 13:59:00,
2013-04-12 08:04:00,27.7,24.1,29.87,NE,45,4.8,5.8,86,0.00,OVC,,0.00,WeatherDisplay:10.37,2013-04-12 14:04:00,
2013-04-12 08:09:00,27.7,24.1,29.87,ESE,112,4.1,6.9,86,0.00,OVC,,0.00,WeatherDisplay:10.37,2013-04-12 14:09:00,
2013-04-12 08:14:00,27.7,24.1,29.87,ESE,112,3.9,4.7,86,0.00,OVC,,0.00,WeatherDisplay:10.37,2013-04-12 14:14:00,
2013-04-12 08:19:00,27.9,24.3,29.87,ENE,68,4.5,5.8,86,0.00,OVC,,0.00,WeatherDisplay:10.37,2013-04-12 14:19:00,
2013-04-12 08:24:00,28.0,24.4,29.87,ENE,68,2.2,3.5,86,0.00,OVC,,0.00,WeatherDisplay:10.37,2013-04-12 14:24:00,
2013-04-12 08:29:00,28.0,24.4,29.88,SSE,158,2.5,3.5,86,0.00,OVC,,0.00,WeatherDisplay:10.37,2013-04-12 14:29:00,
2013-04-12 08:34:00,28.0,24.4,29.88,SE,135,3.6,4.6,86,0.00,OVC,,0.00,WeatherDisplay:10.37,2013-04-12 14:34:00,
2013-04-12 08:39:00,27.9,24.0,29.88,East,90,3.5,4.6,85,0.00,OVC,,0.00,WeatherDisplay:10.37,2013-04-12 14:39:00,
2013-04-12 08:44:00,27.9,24.0,29.88,ESE,112,4.5,5.8,85,0.00,OVC,,0.00,WeatherDisplay:10.37,2013-04-12 14:44:00,
2013-04-12 08:49:00,28.2,24.3,29.88,East,90,4.7,6.3,85,0.00,OVC,,0.00,WeatherDisplay:10.37,2013-04-12 14:49:00,
2013-04-12 08:54:00,28.2,24.3,29.88,ESE,112,3.5,5.8,85,0.00,OVC,,0.00,WeatherDisplay:10.37,2013-04-12 14:54:00,
2013-04-12 08:59:00,28.4,24.5,29.88,ESE,112,4.7,4.7,85,0.00,OVC,,0.00,WeatherDisplay:10.37,2013-04-12 14:59:00,
2013-04-12 09:04:00,28.6,24.1,29.88,NNE,22,4.5,5.8,83,0.00,OVC,,0.00,WeatherDisplay:10.37,2013-04-12 15:04:00,
2013-04-12 09:09:00,28.8,24.3,29.88,ESE,112,5.2,5.8,83,0.00,OVC,,0.00,WeatherDisplay:10.37,2013-04-12 15:09:00,
2013-04-12 09:14:00,28.9,24.1,29.88,ESE,112,2.7,3.5,82,0.00,OVC,,0.00,WeatherDisplay:10.37,2013-04-12 15:14:00,
2013-04-12 09:19:00,29.5,24.4,29.88,ESE,112,3.4,3.5,81,0.00,OVC,,0.00,WeatherDisplay:10.37,2013-04-12 15:19:00,
2013-04-12 09:24:00,29.7,24.6,29.88,East,90,2.6,3.5,81,0.00,OVC,,0.00,WeatherDisplay:10.37,2013-04-12 15:24:00,
2013-04-12 09:29:00,30.0,24.6,29.88,NE,45,3.8,5.3,80,0.00,OVC,,0.00,WeatherDisplay:10.37,2013-04-12 15:29:00,
2013-04-12 09:34:00,30.2,24.8,29.88,NE,45,3.7,4.7,80,0.00,OVC,,0.00,WeatherDisplay:10.37,2013-04-12 15:34:00,
2013-04-12 09:39:00,30.0,24.3,29.88,NE,45,3.2,4.6,79,0.00,OVC,,0.00,WeatherDisplay:10.37,2013-04-12 15:39:00,
2013-04-12 09:44:00,30.7,25.0,29.88,ESE,112,3.8,4.6,79,0.00,OVC,,0.00,WeatherDisplay:10.37,2013-04-12 15:44:00,
2013-04-12 09:49:00,30.9,25.2,29.88,NE,45,2.6,4.7,79,0.00,OVC,,0.00,WeatherDisplay:10.37,2013-04-12 15:49:00,
2013-04-12 09:54:00,30.2,24.5,29.89,ESE,112,3.9,5.8,79,0.00,OVC,,0.00,WeatherDisplay:10.37,2013-04-12 15:54:00,
2013-04-12 09:59:00,30.7,24.7,29.89,East,90,4.2,5.8,78,0.00,OVC,,0.00,WeatherDisplay:10.37,2013-04-12 15:59:00,
2013-04-12 10:04:00,31.1,24.7,29.89,ENE,68,2.6,4.7,77,0.00,OVC,,0.00,WeatherDisplay:10.37,2013-04-12 16:04:00,
2013-04-12 10:09:00,31.5,24.8,29.89,NE,45,4.5,5.8,76,0.00,OVC,,0.00,WeatherDisplay:10.37,2013-04-12 16:09:00,
2013-04-12 10:14:00,31.1,24.4,29.89,NNE,22,6.6,8.1,76,0.00,OVC,,0.00,WeatherDisplay:10.37,2013-04-12 16:14:00,
2013-04-12 10:19:00,31.3,24.6,29.89,East,90,4.3,5.8,76,0.00,OVC,,0.00,WeatherDisplay:10.37,2013-04-12 16:19:00,
2013-04-12 10:24:00,31.5,24.8,29.89,NE,45,3.3,4.7,76,0.00,OVC,,0.00,WeatherDisplay:10.37,2013-04-12 16:24:00,
2013-04-12 10:29:00,30.9,24.2,29.89,West,270,3.6,3.7,76,0.00,OVC,,0.00,WeatherDisplay:10.37,2013-04-12 16:29:00,
2013-04-12 10:34:00,32.0,25.0,29.89,ESE,112,2.7,2.7,75,0.00,OVC,,0.00,WeatherDisplay:10.37,2013-04-12 16:34:00,
2013-04-12 10:39:00,32.7,25.3,29.90,ESE,112,2.7,3.5,74,0.00,OVC,,0.00,WeatherDisplay:10.37,2013-04-12 16:39:00,
2013-04-12 10:44:00,31.8,24.5,29.90,NW,315,3.9,4.6,74,0.00,OVC,,0.00,WeatherDisplay:10.37,2013-04-12 16:44:00,
2013-04-12 10:49:00,32.4,25.0,29.90,ESE,112,1.9,2.3,74,0.00,OVC,,0.00,WeatherDisplay:10.37,2013-04-12 16:49:00,
2013-04-12 10:55:00,31.6,24.9,29.90,North,360,4.3,4.7,76,0.00,OVC,,0.00,WeatherDisplay:10.37,2013-04-12 16:55:00,
2013-04-12 11:00:00,32.5,25.1,29.90,NNE,22,2.2,4.2,74,0.00,OVC,,0.00,WeatherDisplay:10.37,2013-04-12 17:00:00,
2013-04-12 11:05:00,32.2,24.8,29.90,NNW,338,2.3,3.5,74,0.00,OVC,,0.00,WeatherDisplay:10.37,2013-04-12 17:05:00,
2013-04-12 11:10:00,32.9,25.2,29.90,WNW,292,2.6,3.7,73,0.00,OVC,,0.00,WeatherDisplay:10.37,2013-04-12 17:10:00,
2013-04-12 11:15:00,33.8,25.4,29.90,South,180,1.3,2.7,71,0.00,OVC,,0.00,WeatherDisplay:10.37,2013-04-12 17:15:00,
2013-04-12 11:20:00,32.7,25.0,29.90,NW,315,3.0,4.6,73,0.00,OVC,,0.00,WeatherDisplay:10.37,2013-04-12 17:20:00,
2013-04-12 11:25:00,32.9,25.5,29.90,West,270,3.7,4.6,74,0.00,OVC,,0.00,WeatherDisplay:10.37,2013-04-12 17:25:00,
2013-04-12 11:30:00,32.4,25.4,29.90,WSW,248,2.9,4.6,75,0.00,OVC,,0.00,WeatherDisplay:10.37,2013-04-12 17:30:00,
2013-04-12 11:35:00,32.5,25.1,29.90,NW,315,3.9,4.7,74,0.00,OVC,,0.00,WeatherDisplay:10.37,2013-04-12 17:35:00,
2013-04-12 11:40:00,32.7,25.3,29.90,WNW,292,1.8,2.3,74,0.00,OVC,,0.00,WeatherDisplay:10.37,2013-04-12 17:40:00,
2013-04-12 11:45:00,32.5,24.8,29.90,NNW,338,4.8,5.8,73,0.00,OVC,,0.00,WeatherDisplay:10.37,2013-04-12 17:45:00,
2013-04-12 11:50:00,32.2,25.2,29.90,North,360,4.1,5.8,75,0.00,OVC,,0.00,WeatherDisplay:10.37,2013-04-12 17:50:00,
2013-04-12 11:56:00,32.5,25.1,29.90,NE,45,2.7,4.6,74,0.00,OVC,,0.00,WeatherDisplay:10.37,2013-04-12 17:56:00,
2013-04-12 12:01:00,33.3,25.6,29.90,ENE,68,4.0,5.8,73,0.00,OVC,,0.00,WeatherDisplay:10.37,2013-04-12 18:01:00,
2013-04-12 12:06:00,33.6,25.5,29.90,NE,45,3.3,3.5,72,0.00,OVC,,0.00,WeatherDisplay:10.37,2013-04-12 18:06:00,
2013-04-12 12:12:00,33.4,25.7,29.90,WSW,248,3.3,3.7,73,0.00,OVC,,0.00,WeatherDisplay:10.37,2013-04-12 18:12:00,
2013-04-12 12:17:00,34.3,26.2,29.89,NNE,22,1.5,2.3,72,0.00,OVC,,0.00,WeatherDisplay:10.37,2013-04-12 18:17:00,
2013-04-12 12:24:00,34.3,25.9,29.89,NNE,22,3.5,4.7,71,0.00,OVC,,0.00,WeatherDisplay:10.37,2013-04-12 18:24:00,
2013-04-12 12:29:00,34.3,25.9,29.89,NE,45,2.2,3.5,71,0.00,OVC,,0.00,WeatherDisplay:10.37,2013-04-12 18:29:00,
2013-04-12 13:26:00,34.3,25.9,29.89,NE,45,2.2,2.3,71,0.00,OVC,,0.00,WeatherDisplay:10.37,2013-04-12 19:26:00,
2013-04-12 13:31:00,34.3,25.9,29.89,NE,45,2.2,2.3,71,0.00,OVC,,0.00,WeatherDisplay:10.37,2013-04-12 19:31:00,
2013-04-12 13:36:00,34.3,25.9,29.89,NE,45,2.2,2.3,71,0.00,OVC,,0.00,WeatherDisplay:10.37,2013-04-12 19:36:00,
2013-04-12 13:41:00,34.3,25.9,29.89,NE,45,2.2,2.3,71,0.00,OVC,,0.00,WeatherDisplay:10.37,2013-04-12 19:41:00,
2013-04-12 13:47:00,34.3,25.9,29.89,NE,45,2.2,2.3,71,0.00,OVC,,0.00,WeatherDisplay:10.37,2013-04-12 19:47:00,
2013-04-12 13:52:00,34.3,25.9,29.89,NE,45,2.2,2.3,71,0.00,OVC,,0.00,WeatherDisplay:10.37,2013-04-12 19:52:00,
2013-04-12 13:57:00,34.3,25.9,29.89,NE,45,2.2,2.3,71,0.00,OVC,,0.00,WeatherDisplay:10.37,2013-04-12 19:57:00,
2013-04-12 14:02:00,34.3,25.9,29.89,NE,45,2.2,2.3,71,0.00,OVC,,0.00,WeatherDisplay:10.37,2013-04-12 20:02:00,
2013-04-12 14:07:00,34.3,25.9,29.89,NE,45,2.2,2.3,71,0.00,OVC,,0.00,WeatherDisplay:10.37,2013-04-12 20:07:00,
2013-04-12 14:12:00,34.3,25.9,29.89,NE,45,2.2,2.3,71,0.00,OVC,,0.00,WeatherDisplay:10.37,2013-04-12 20:12:00,
2013-04-12 14:17:00,34.3,25.9,29.89,NE,45,2.2,2.3,71,0.00,OVC,,0.00,WeatherDisplay:10.37,2013-04-12 20:17:00,
2013-04-12 14:22:00,34.3,25.9,29.89,NE,45,2.2,2.3,71,0.00,OVC,,0.00,WeatherDisplay:10.37,2013-04-12 20:22:00,
2013-04-12 14:27:00,34.3,25.9,29.89,NE,45,2.2,2.3,71,0.00,OVC,,0.00,WeatherDisplay:10.37,2013-04-12 20:27:00,
2013-04-12 14:32:00,34.3,25.9,29.89,NE,45,2.2,2.3,71,0.00,OVC,,0.00,WeatherDisplay:10.37,2013-04-12 20:32:00,
2013-04-12 14:37:00,34.3,25.9,29.89,NE,45,2.2,2.3,71,0.00,OVC,,0.00,WeatherDisplay:10.37,2013-04-12 20:37:00,
2013-04-12 14:42:00,34.3,25.9,29.89,NE,45,2.2,2.3,71,0.00,OVC,,0.00,WeatherDisplay:10.37,2013-04-12 20:42:00,
2013-04-12 14:47:00,34.3,25.9,29.89,NE,45,2.2,2.3,71,0.00,OVC,,0.00,WeatherDisplay:10.37,2013-04-12 20:47:00,
2013-04-12 14:52:00,34.3,25.9,29.89,NE,45,2.2,2.3,71,0.00,OVC,,0.00,WeatherDisplay:10.37,2013-04-12 20:52:00,
2013-04-12 14:57:00,34.3,25.9,29.89,NE,45,2.2,2.3,71,0.00,OVC,,0.00,WeatherDisplay:10.37,2013-04-12 20:57:00,
2013-04-12 15:02:00,34.3,25.9,29.89,NE,45,2.2,2.3,71,0.00,OVC,,0.00,WeatherDisplay:10.37,2013-04-12 21:02:00,
2013-04-12 15:07:00,34.3,25.9,29.89,NE,45,2.2,2.3,71,0.00,OVC,,0.00,WeatherDisplay:10.37,2013-04-12 21:07:00,
2013-04-12 15:12:00,34.3,25.9,29.89,NE,45,2.2,2.3,71,0.00,OVC,,0.00,WeatherDisplay:10.37,2013-04-12 21:12:00,
2013-04-12 15:17:00,34.3,25.9,29.89,NE,45,2.2,2.3,71,0.00,OVC,,0.00,WeatherDisplay:10.37,2013-04-12 21:17:00,
2013-04-12 15:22:00,34.3,25.9,29.89,NE,45,2.2,2.3,71,0.00,OVC,,0.00,WeatherDisplay:10.37,2013-04-12 21:22:00,
2013-04-12 15:27:00,34.3,25.9,29.89,NE,45,2.2,2.3,71,0.00,OVC,,0.00,WeatherDisplay:10.37,2013-04-12 21:27:00,
2013-04-12 15:32:00,34.3,25.9,29.89,NE,45,2.2,2.3,71,0.00,OVC,,0.00,WeatherDisplay:10.37,2013-04-12 21:32:00,
2013-04-12 15:37:00,34.3,25.9,29.89,NE,45,2.2,2.3,71,0.00,OVC,,0.00,WeatherDisplay:10.37,2013-04-12 21:37:00,
2013-04-12 15:42:00,34.3,25.9,29.89,NE,45,2.2,2.3,71,0.00,OVC,,0.00,WeatherDisplay:10.37,2013-04-12 21:42:00,
2013-04-12 15:47:00,34.3,25.9,29.89,NE,45,2.2,2.3,71,0.00,OVC,,0.00,WeatherDisplay:10.37,2013-04-12 21:47:00,
2013-04-12 15:52:00,34.3,25.9,29.89,NE,45,2.2,2.3,71,0.00,OVC,,0.00,WeatherDisplay:10.37,2013-04-12 21:52:00,
2013-04-12 15:57:00,34.3,25.9,29.89,NE,45,2.2,2.3,71,0.00,OVC,,0.00,WeatherDisplay:10.37,2013-04-12 21:57:00,
2013-04-12 16:02:00,34.3,25.9,29.89,NE,45,2.2,2.3,71,0.00,OVC,,0.00,WeatherDisplay:10.37,2013-04-12 22:02:00,
2013-04-12 16:08:00,34.3,25.9,29.89,NE,45,2.2,2.3,71,0.00,OVC,,0.00,WeatherDisplay:10.37,2013-04-12 22:08:00,
2013-04-12 16:13:00,34.3,25.9,29.89,NE,45,2.2,2.3,71,0.00,OVC,,0.00,WeatherDisplay:10.37,2013-04-12 22:13:00,
2013-04-12 16:18:00,34.3,25.9,29.89,NE,45,2.2,2.3,71,0.00,OVC,,0.00,WeatherDisplay:10.37,2013-04-12 22:18:00,
2013-04-12 16:23:00,34.3,25.9,29.89,NE,45,2.2,2.3,71,0.00,OVC,,0.00,WeatherDisplay:10.37,2013-04-12 22:23:00,
2013-04-12 16:28:00,34.3,25.9,29.89,NE,45,2.2,2.3,71,0.00,OVC,,0.00,WeatherDisplay:10.37,2013-04-12 22:28:00,
2013-04-12 16:33:00,34.3,25.9,29.89,NE,45,2.2,2.3,71,0.00,OVC,,0.00,WeatherDisplay:10.37,2013-04-12 22:33:00,
2013-04-12 16:38:00,34.3,25.9,29.89,NE,45,2.2,2.3,71,0.00,OVC,,0.00,WeatherDisplay:10.37,2013-04-12 22:38:00,
2013-04-12 16:43:00,34.3,25.9,29.89,NE,45,2.2,2.3,71,0.00,OVC,,0.00,WeatherDisplay:10.37,2013-04-12 22:43:00,
2013-04-12 16:48:00,34.3,25.9,29.89,NE,45,2.2,2.3,71,0.00,OVC,,0.00,WeatherDisplay:10.37,2013-04-12 22:48:00,
2013-04-12 16:53:00,34.3,25.9,29.89,NE,45,2.2,2.3,71,0.00,OVC,,0.00,WeatherDisplay:10.37,2013-04-12 22:53:00,
2013-04-12 16:58:00,34.3,25.9,29.89,NE,45,2.2,2.3,71,0.00,OVC,,0.00,WeatherDisplay:10.37,2013-04-12 22:58:00,
2013-04-12 17:03:00,34.3,25.9,29.89,NE,45,2.2,2.3,71,0.00,OVC,,0.00,WeatherDisplay:10.37,2013-04-12 23:03:00,
2013-04-12 17:08:00,34.3,25.9,29.89,NE,45,2.2,2.3,71,0.00,OVC,,0.00,WeatherDisplay:10.37,2013-04-12 23:08:00,
2013-04-12 17:13:00,34.3,25.9,29.89,NE,45,2.2,2.3,71,0.00,OVC,,0.00,WeatherDisplay:10.37,2013-04-12 23:13:00,
2013-04-12 17:18:00,34.3,25.9,29.89,NE,45,2.2,2.3,71,0.00,OVC,,0.00,WeatherDisplay:10.37,2013-04-12 23:18:00,
2013-04-12 17:23:00,34.3,25.9,29.89,NE,45,2.2,2.3,71,0.00,OVC,,0.00,WeatherDisplay:10.37,2013-04-12 23:23:00,
2013-04-12 17:28:00,34.3,25.9,29.89,NE,45,2.2,2.3,71,0.00,OVC,,0.00,WeatherDisplay:10.37,2013-04-12 23:28:00,
2013-04-12 17:33:00,34.3,25.9,29.89,NE,45,2.2,2.3,71,0.00,OVC,,0.00,WeatherDisplay:10.37,2013-04-12 23:33:00,
2013-04-12 17:38:00,34.3,25.9,29.89,NE,45,2.2,2.3,71,0.00,OVC,,0.00,WeatherDisplay:10.37,2013-04-12 23:38:00,
2013-04-12 17:43:00,34.3,25.9,29.89,NE,45,2.2,2.3,71,0.00,OVC,,0.00,WeatherDisplay:10.37,2013-04-12 23:43:00,
2013-04-12 17:48:00,34.3,25.9,29.89,NE,45,2.2,2.3,71,0.00,OVC,,0.00,WeatherDisplay:10.37,2013-04-12 23:48:00,
2013-04-12 17:53:00,34.3,25.9,29.89,NE,45,2.2,2.3,71,0.00,OVC,,0.00,WeatherDisplay:10.37,2013-04-12 23:53:00,
2013-04-12 17:58:00,34.3,25.9,29.89,NE,45,2.2,2.3,71,0.00,OVC,,0.00,WeatherDisplay:10.37,2013-04-12 23:58:00,
2013-04-12 18:03:00,34.3,25.9,29.89,NE,45,2.2,2.3,71,0.00,-SN,,0.00,WeatherDisplay:10.37,2013-04-13 00:03:00,
2013-04-12 18:08:00,34.3,25.9,29.89,NE,45,2.2,2.3,71,0.00,-SN,,0.00,WeatherDisplay:10.37,2013-04-13 00:08:00,
2013-04-12 18:13:00,34.3,25.9,29.89,NE,45,2.2,2.3,71,0.00,-SN,,0.00,WeatherDisplay:10.37,2013-04-13 00:13:00,
2013-04-12 18:18:00,34.3,25.9,29.89,NE,45,2.2,2.3,71,0.00,-SN,,0.00,WeatherDisplay:10.37,2013-04-13 00:18:00,
2013-04-12 18:23:00,34.3,25.9,29.89,NE,45,2.2,2.3,71,0.00,-SN,,0.00,WeatherDisplay:10.37,2013-04-13 00:23:00,
2013-04-12 18:28:00,34.3,25.9,29.89,NE,45,2.2,2.3,71,0.00,-SN,,0.00,WeatherDisplay:10.37,2013-04-13 00:28:00,
2013-04-12 18:33:00,34.3,25.9,29.89,NE,45,2.2,2.3,71,0.00,-SN,,0.00,WeatherDisplay:10.37,2013-04-13 00:33:00,
2013-04-12 18:38:00,34.3,25.9,29.89,NE,45,2.2,2.3,71,0.00,-SN,,0.00,WeatherDisplay:10.37,2013-04-13 00:38:00,
2013-04-12 18:43:00,34.3,25.9,29.89,NE,45,2.2,2.3,71,0.00,-SN,,0.00,WeatherDisplay:10.37,2013-04-13 00:43:00,
2013-04-12 18:48:00,34.3,25.9,29.89,NE,45,2.2,2.3,71,0.00,-SN,,0.00,WeatherDisplay:10.37,2013-04-13 00:48:00,
2013-04-12 18:53:00,34.3,25.9,29.89,NE,45,2.2,2.3,71,0.00,-SN,,0.00,WeatherDisplay:10.37,2013-04-13 00:53:00,
2013-04-12 18:58:00,34.3,25.9,29.89,NE,45,2.2,2.3,71,0.00,-SN,,0.00,WeatherDisplay:10.37,2013-04-13 00:58:00,
2013-04-12 19:03:00,34.3,25.9,29.89,NE,45,2.2,2.3,71,0.00,-SN,,0.00,WeatherDisplay:10.37,2013-04-13 01:03:00,
2013-04-12 19:08:00,34.3,25.9,29.89,NE,45,2.2,2.3,71,0.00,-SN,,0.00,WeatherDisplay:10.37,2013-04-13 01:08:00,
2013-04-12 19:13:00,34.3,25.9,29.89,NE,45,2.2,2.3,71,0.00,-SN,,0.00,WeatherDisplay:10.37,2013-04-13 01:13:00,
2013-04-12 19:18:00,34.3,25.9,29.89,NE,45,2.2,2.3,71,0.00,-SN,,0.00,WeatherDisplay:10.37,2013-04-13 01:18:00,
2013-04-12 19:23:00,34.3,25.9,29.89,NE,45,2.2,2.3,71,0.00,-SN,,0.00,WeatherDisplay:10.37,2013-04-13 01:23:00,
2013-04-12 19:28:00,34.3,25.9,29.89,NE,45,2.2,2.3,71,0.00,-SN,,0.00,WeatherDisplay:10.37,2013-04-13 01:28:00,
2013-04-12 19:33:00,34.3,25.9,29.89,NE,45,2.2,2.3,71,0.00,-SN,,0.00,WeatherDisplay:10.37,2013-04-13 01:33:00,
2013-04-12 19:38:00,34.3,25.9,29.89,NE,45,2.2,2.3,71,0.00,-SN,,0.00,WeatherDisplay:10.37,2013-04-13 01:38:00,
2013-04-12 19:43:00,34.3,25.9,29.89,NE,45,2.2,2.3,71,0.00,-SN,,0.00,WeatherDisplay:10.37,2013-04-13 01:43:00,
2013-04-12 19:48:00,34.3,25.9,29.89,NE,45,2.2,2.3,71,0.00,-SN,,0.00,WeatherDisplay:10.37,2013-04-13 01:48:00,
2013-04-12 19:53:00,34.3,25.9,29.89,NE,45,2.2,2.3,71,0.00,-SN,,0.00,WeatherDisplay:10.37,2013-04-13 01:53:00,
2013-04-12 19:59:00,34.3,25.9,29.89,NE,45,2.2,2.3,71,0.00,-SN,,0.00,WeatherDisplay:10.37,2013-04-13 01:59:00,
2013-04-12 20:04:00,34.3,25.9,29.89,NE,45,2.2,2.3,71,0.00,OVC,,0.00,WeatherDisplay:10.37,2013-04-13 02:04:00,
2013-04-12 20:09:00,34.3,25.9,29.89,NE,45,2.2,2.3,71,0.00,OVC,,0.00,WeatherDisplay:10.37,2013-04-13 02:09:00,
2013-04-12 20:14:00,34.3,25.9,29.89,NE,45,2.2,2.3,71,0.00,OVC,,0.00,WeatherDisplay:10.37,2013-04-13 02:14:00,
2013-04-12 20:19:00,34.3,25.9,29.89,NE,45,2.2,2.3,71,0.00,OVC,,0.00,WeatherDisplay:10.37,2013-04-13 02:19:00,
2013-04-12 20:24:00,34.3,25.9,29.89,NE,45,2.2,2.3,71,0.00,OVC,,0.00,WeatherDisplay:10.37,2013-04-13 02:24:00,
2013-04-12 20:29:00,34.3,25.9,29.89,NE,45,2.2,2.3,71,0.00,OVC,,0.00,WeatherDisplay:10.37,2013-04-13 02:29:00,
2013-04-12 20:34:00,34.3,25.9,29.89,NE,45,2.2,2.3,71,0.00,OVC,,0.00,WeatherDisplay:10.37,2013-04-13 02:34:00,
2013-04-12 20:39:00,34.3,25.9,29.89,NE,45,2.2,2.3,71,0.00,OVC,,0.00,WeatherDisplay:10.37,2013-04-13 02:39:00,
2013-04-12 20:44:00,34.3,25.9,29.89,NE,45,2.2,2.3,71,0.00,OVC,,0.00,WeatherDisplay:10.37,2013-04-13 02:44:00,
2013-04-12 20:49:00,34.3,25.9,29.89,NE,45,2.2,2.3,71,0.00,OVC,,0.00,WeatherDisplay:10.37,2013-04-13 02:49:00,
2013-04-12 20:54:00,34.3,25.9,29.89,NE,45,2.2,2.3,71,0.00,OVC,,0.00,WeatherDisplay:10.37,2013-04-13 02:54:00,
2013-04-12 20:59:00,34.3,25.9,29.89,NE,45,2.2,2.3,71,0.00,OVC,,0.00,WeatherDisplay:10.37,2013-04-13 02:59:00,
2013-04-12 21:04:00,34.3,25.9,29.89,NE,45,2.2,2.3,71,0.00,OVC,,0.00,WeatherDisplay:10.37,2013-04-13 03:04:00,
2013-04-12 21:09:00,34.3,25.9,29.89,NE,45,2.2,2.3,71,0.00,OVC,,0.00,WeatherDisplay:10.37,2013-04-13 03:09:00,
2013-04-12 21:14:00,34.3,25.9,29.89,NE,45,2.2,2.3,71,0.00,OVC,,0.00,WeatherDisplay:10.37,2013-04-13 03:14:00,
2013-04-12 21:19:00,34.3,25.9,29.89,NE,45,2.2,2.3,71,0.00,OVC,,0.00,WeatherDisplay:10.37,2013-04-13 03:19:00,
2013-04-12 21:24:00,34.3,25.9,29.89,NE,45,2.2,2.3,71,0.00,OVC,,0.00,WeatherDisplay:10.37,2013-04-13 03:24:00,
2013-04-12 21:29:00,34.3,25.9,29.89,NE,45,2.2,2.3,71,0.00,OVC,,0.00,WeatherDisplay:10.37,2013-04-13 03:29:00,
2013-04-12 21:34:00,34.3,25.9,29.89,NE,45,2.2,2.3,71,0.00,OVC,,0.00,WeatherDisplay:10.37,2013-04-13 03:34:00,
2013-04-12 21:39:00,34.3,25.9,29.89,NE,45,2.2,2.3,71,0.00,OVC,,0.00,WeatherDisplay:10.37,2013-04-13 03:39:00,
2013-04-12 21:44:00,34.3,25.9,29.89,NE,45,2.2,2.3,71,0.00,OVC,,0.00,WeatherDisplay:10.37,2013-04-13 03:44:00,
2013-04-12 21:49:00,34.3,25.9,29.89,NE,45,2.2,2.3,71,0.00,OVC,,0.00,WeatherDisplay:10.37,2013-04-13 03:49:00,
2013-04-12 21:54:00,34.3,25.9,29.89,NE,45,2.2,2.3,71,0.00,OVC,,0.00,WeatherDisplay:10.37,2013-04-13 03:54:00,
2013-04-12 21:59:00,34.3,25.9,29.89,NE,45,2.2,2.3,71,0.00,OVC,,0.00,WeatherDisplay:10.37,2013-04-13 03:59:00,
2013-04-12 22:00:00,34.3,25.9,29.89,NE,45,2.2,2.3,71,0.00,OVC,,0.00,WeatherDisplay:10.37,2013-04-13 04:00:00,
2013-04-12 22:05:00,34.3,25.9,29.89,NE,45,2.2,2.3,71,0.00,OVC,,0.00,WeatherDisplay:10.37,2013-04-13 04:05:00,
2013-04-12 22:10:00,34.3,25.9,29.89,NE,45,2.2,2.3,71,0.00,OVC,,0.00,WeatherDisplay:10.37,2013-04-13 04:10:00,
2013-04-12 22:15:00,34.3,25.9,29.89,NE,45,2.2,2.3,71,0.00,OVC,,0.00,WeatherDisplay:10.37,2013-04-13 04:15:00,
2013-04-12 22:20:00,34.3,25.9,29.89,NE,45,2.2,2.3,71,0.00,OVC,,0.00,WeatherDisplay:10.37,2013-04-13 04:20:00,
2013-04-12 22:25:00,34.3,25.9,29.89,NE,45,2.2,2.3,71,0.00,OVC,,0.00,WeatherDisplay:10.37,2013-04-13 04:25:00,
2013-04-12 22:30:00,34.3,25.9,29.89,NE,45,2.2,2.3,71,0.00,OVC,,0.00,WeatherDisplay:10.37,2013-04-13 04:30:00,
2013-04-12 22:35:00,34.3,25.9,29.89,NE,45,2.2,2.3,71,0.00,OVC,,0.00,WeatherDisplay:10.37,2013-04-13 04:35:00,
2013-04-12 22:40:00,34.3,25.9,29.89,NE,45,2.2,2.3,71,0.00,OVC,,0.00,WeatherDisplay:10.37,2013-04-13 04:40:00,
2013-04-12 22:45:00,34.3,25.9,29.89,NE,45,2.2,2.3,71,0.00,OVC,,0.00,WeatherDisplay:10.37,2013-04-13 04:45:00,
2013-04-12 22:50:00,34.3,25.9,29.89,NE,45,2.2,2.3,71,0.00,OVC,,0.00,WeatherDisplay:10.37,2013-04-13 04:50:00,
2013-04-12 22:55:00,34.3,25.9,29.89,NE,45,2.2,2.3,71,0.00,OVC,,0.00,WeatherDisplay:10.37,2013-04-13 04:55:00,
2013-04-12 23:00:00,34.3,25.9,29.89,NE,45,2.2,2.3,71,0.00,OVC,,0.00,WeatherDisplay:10.37,2013-04-13 05:00:00,
2013-04-12 23:05:00,34.3,25.9,29.89,NE,45,2.2,2.3,71,0.00,OVC,,0.00,WeatherDisplay:10.37,2013-04-13 05:05:00,
2013-04-12 23:10:00,34.3,25.9,29.89,NE,45,2.2,2.3,71,0.00,OVC,,0.00,WeatherDisplay:10.37,2013-04-13 05:10:00,
2013-04-12 23:15:00,34.3,25.9,29.89,NE,45,2.2,2.3,71,0.00,OVC,,0.00,WeatherDisplay:10.37,2013-04-13 05:15:00,
2013-04-12 23:20:00,34.3,25.9,29.89,NE,45,2.2,2.3,71,0.00,OVC,,0.00,WeatherDisplay:10.37,2013-04-13 05:20:00,
2013-04-12 23:25:00,34.3,25.9,29.89,NE,45,2.2,2.3,71,0.00,OVC,,0.00,WeatherDisplay:10.37,2013-04-13 05:25:00,
2013-04-12 23:30:00,34.3,25.9,29.89,NE,45,2.2,2.3,71,0.00,OVC,,0.00,WeatherDisplay:10.37,2013-04-13 05:30:00,
2013-04-12 23:35:00,34.3,25.9,29.89,NE,45,2.2,2.3,71,0.00,OVC,,0.00,WeatherDisplay:10.37,2013-04-13 05:35:00,
2013-04-12 23:40:00,34.3,25.9,29.89,NE,45,2.2,2.3,71,0.00,OVC,,0.00,WeatherDisplay:10.37,2013-04-13 05:40:00,
2013-04-12 23:45:00,34.3,25.9,29.89,NE,45,2.2,2.3,71,0.00,OVC,,0.00,WeatherDisplay:10.37,2013-04-13 05:45:00,
2013-04-12 23:50:00,34.3,25.9,29.89,NE,45,2.2,2.3,71,0.00,OVC,,0.00,WeatherDisplay:10.37,2013-04-13 05:50:00,
2013-04-12 23:55:00,34.3,25.9,29.89,NE,45,2.2,2.3,71,0.00,SCT,,0.00,WeatherDisplay:10.37,2013-04-13 05:55:00,